createdAt,value
2022-09-27T00:00:05.369Z,11.60
2022-09-27T00:02:31.884Z,10.57
2022-09-27T00:04:58.793Z,9.77
2022-09-27T00:07:25.216Z,10.20
2022-09-27T00:09:51.617Z,8.80
2022-09-27T00:12:17.987Z,7.17
2022-09-27T00:14:44.389Z,8.03
2022-09-27T00:17:10.833Z,11.17
2022-09-27T00:19:37.243Z,7.83
2022-09-27T00:22:03.732Z,9.40
2022-09-27T00:24:30.161Z,6.57
2022-09-27T00:26:56.662Z,8.23
2022-09-27T00:29:23.071Z,6.47
2022-09-27T00:31:49.503Z,7.10
2022-09-27T00:34:21.320Z,8.93
2022-09-27T00:36:48.707Z,5.57
2022-09-27T00:39:16.014Z,8.30
2022-09-27T00:41:43.718Z,6.87
2022-09-27T00:44:25.152Z,6.83
2022-09-27T00:47:13.409Z,8.50
2022-09-27T00:49:45.896Z,4.60
2022-09-27T00:52:19.318Z,6.20
2022-09-27T00:54:50.831Z,6.83
2022-09-27T00:57:19.082Z,6.10
2022-09-27T00:59:54.647Z,5.13
2022-09-27T01:02:21.435Z,5.27
2022-09-27T01:04:49.673Z,11.57
2022-09-27T01:07:16.438Z,6.60
2022-09-27T01:09:43.180Z,8.50
2022-09-27T01:12:27.740Z,5.77
2022-09-27T01:15:13.134Z,9.60
2022-09-27T01:17:57.503Z,5.33
2022-09-27T01:20:33.094Z,8.63
2022-09-27T01:23:08.766Z,7.70
2022-09-27T01:25:53.818Z,7.53
2022-09-27T01:28:40.386Z,9.67
2022-09-27T01:31:31.569Z,13.00
2022-09-27T01:34:44.906Z,8.20
2022-09-27T01:37:38.540Z,7.43
2022-09-27T01:40:07.794Z,5.93
2022-09-27T01:42:46.182Z,10.47
2022-09-27T01:45:33.882Z,7.43
2022-09-27T01:48:04.890Z,7.67
2022-09-27T01:50:40.337Z,7.50
2022-09-27T01:53:16.877Z,13.13
2022-09-27T01:55:45.153Z,11.90
2022-09-27T01:58:24.058Z,8.63
2022-09-27T02:00:53.042Z,8.13
2022-09-27T02:03:32.825Z,8.30
2022-09-27T02:06:03.689Z,9.63
2022-09-27T02:08:43.715Z,6.80
2022-09-27T02:11:13.495Z,9.63
2022-09-27T02:13:50.773Z,5.70
2022-09-27T02:16:29.888Z,6.10
2022-09-27T02:19:08.970Z,7.93
2022-09-27T02:21:55.770Z,9.33
2022-09-27T02:24:27.940Z,6.87
2022-09-27T02:27:06.579Z,8.87
2022-09-27T02:29:39.633Z,6.40
2022-09-27T02:32:06.053Z,9.20
2022-09-27T02:34:36.172Z,11.63
2022-09-27T02:37:02.726Z,9.50
2022-09-27T02:39:29.089Z,7.37
2022-09-27T02:41:58.270Z,11.20
2022-09-27T02:44:27.023Z,12.50
2022-09-27T02:46:53.406Z,11.30
2022-09-27T02:49:56.968Z,8.57
2022-09-27T02:52:35.426Z,11.67
2022-09-27T02:55:26.522Z,9.13
2022-09-27T02:58:11.214Z,9.70
2022-09-27T03:00:49.178Z,11.70
2022-09-27T03:03:27.085Z,9.50
2022-09-27T03:06:04.048Z,9.03
2022-09-27T03:08:30.738Z,8.33
2022-09-27T03:10:57.185Z,7.80
2022-09-27T03:13:23.750Z,8.70
2022-09-27T03:15:50.129Z,9.00
2022-09-27T03:18:16.550Z,13.03
2022-09-27T03:20:42.954Z,9.67
2022-09-27T03:23:09.362Z,7.27
2022-09-27T03:25:35.875Z,6.40
2022-09-27T03:28:02.258Z,6.50
2022-09-27T03:30:28.656Z,10.03
2022-09-27T03:32:55.013Z,6.33
2022-09-27T03:35:21.531Z,11.30
2022-09-27T03:37:47.925Z,8.10
2022-09-27T03:40:14.455Z,7.03
2022-09-27T03:42:43.197Z,6.80
2022-09-27T03:45:13.574Z,6.57
2022-09-27T03:47:41.471Z,6.07
2022-09-27T03:50:09.423Z,6.90
2022-09-27T03:52:37.507Z,6.27
2022-09-27T03:55:04.513Z,5.60
2022-09-27T03:57:31.885Z,6.10
2022-09-27T03:59:59.863Z,6.50
2022-09-27T04:02:27.599Z,3.93
2022-09-27T04:04:54.175Z,5.50
2022-09-27T04:07:20.821Z,5.13
2022-09-27T04:09:47.249Z,6.60
2022-09-27T04:12:13.726Z,4.43
2022-09-27T04:14:40.077Z,3.07
2022-09-27T04:17:07.144Z,5.07
2022-09-27T04:19:33.612Z,5.10
2022-09-27T04:22:01.576Z,3.53
2022-09-27T04:24:28.017Z,4.17
2022-09-27T04:26:54.466Z,3.70
2022-09-27T04:29:20.859Z,4.23
2022-09-27T04:31:47.720Z,3.63
2022-09-27T04:34:14.122Z,5.97
2022-09-27T04:36:40.481Z,5.97
2022-09-27T04:39:08.518Z,7.37
2022-09-27T04:41:35.987Z,5.63
2022-09-27T04:44:02.840Z,6.87
2022-09-27T04:46:34.163Z,11.63
2022-09-27T04:49:00.942Z,4.90
2022-09-27T04:51:27.957Z,5.33
2022-09-27T04:53:57.293Z,5.47
2022-09-27T04:56:23.682Z,5.60
2022-09-27T04:58:50.058Z,6.40
2022-09-27T05:01:17.056Z,3.90
2022-09-27T05:03:43.800Z,7.10
2022-09-27T05:06:10.587Z,4.00
2022-09-27T05:08:37.054Z,5.83
2022-09-27T05:11:03.486Z,4.70
2022-09-27T05:13:29.836Z,4.53
2022-09-27T05:16:03.081Z,7.97
2022-09-27T05:18:29.633Z,7.07
2022-09-27T05:20:56.845Z,7.73
2022-09-27T05:23:23.201Z,5.60
2022-09-27T05:25:49.617Z,4.83
2022-09-27T05:28:16.106Z,4.30
2022-09-27T05:30:42.561Z,6.40
2022-09-27T05:33:09.008Z,5.30
2022-09-27T05:35:36.073Z,3.77
2022-09-27T05:38:02.509Z,4.97
2022-09-27T05:40:44.909Z,3.37
2022-09-27T05:43:11.584Z,3.77
2022-09-27T05:45:38.144Z,5.13
2022-09-27T05:48:05.216Z,4.00
2022-09-27T05:50:32.533Z,4.23
2022-09-27T05:52:58.911Z,2.70
2022-09-27T05:55:25.282Z,3.17
2022-09-27T05:58:02.961Z,4.83
2022-09-27T06:00:30.066Z,4.00
2022-09-27T06:03:01.835Z,8.17
2022-09-27T06:05:31.514Z,7.37
2022-09-27T06:08:00.655Z,5.00
2022-09-27T06:10:27.843Z,3.03
2022-09-27T06:12:58.606Z,5.40
2022-09-27T06:15:25.523Z,5.70
2022-09-27T06:17:51.913Z,4.97
2022-09-27T06:20:18.462Z,4.10
2022-09-27T06:22:46.267Z,2.33
2022-09-27T06:25:13.166Z,3.80
2022-09-27T06:27:39.563Z,3.83
2022-09-27T06:30:06.402Z,5.57
2022-09-27T06:32:32.766Z,4.40
2022-09-27T06:34:59.128Z,2.43
2022-09-27T06:37:27.003Z,4.50
2022-09-27T06:39:54.007Z,7.37
2022-09-27T06:42:20.407Z,4.20
2022-09-27T06:44:50.388Z,7.33
2022-09-27T06:47:17.503Z,4.57
2022-09-27T06:49:43.874Z,4.00
2022-09-27T06:52:10.626Z,4.33
2022-09-27T06:54:37.033Z,3.67
2022-09-27T06:57:03.498Z,6.73
2022-09-27T06:59:48.272Z,4.60
2022-09-27T07:02:14.668Z,7.63
2022-09-27T07:04:41.115Z,6.40
2022-09-27T07:07:07.547Z,4.00
2022-09-27T07:09:33.922Z,4.70
2022-09-27T07:12:00.330Z,2.90
2022-09-27T07:14:27.459Z,4.10
2022-09-27T07:16:53.875Z,6.03
2022-09-27T07:19:20.289Z,6.70
2022-09-27T07:21:46.738Z,5.00
2022-09-27T07:24:13.114Z,2.27
2022-09-27T07:26:39.473Z,2.90
2022-09-27T07:29:05.862Z,3.93
2022-09-27T07:31:32.234Z,3.33
2022-09-27T07:33:58.630Z,3.27
2022-09-27T07:36:25.019Z,4.30
2022-09-27T07:38:51.379Z,5.73
2022-09-27T07:41:17.935Z,4.60
2022-09-27T07:43:47.047Z,2.60
2022-09-27T07:46:14.298Z,3.60
2022-09-27T07:48:41.178Z,2.47
2022-09-27T07:51:10.685Z,2.07
2022-09-27T07:53:37.081Z,2.90
2022-09-27T07:56:03.634Z,2.70
2022-09-27T07:58:32.218Z,4.27
2022-09-27T08:00:59.398Z,6.07
2022-09-27T08:03:26.252Z,2.10
2022-09-27T08:05:52.669Z,3.73
2022-09-27T08:08:19.074Z,3.53
2022-09-27T08:10:46.990Z,3.33
2022-09-27T08:13:14.778Z,3.50
2022-09-27T08:15:41.214Z,2.97
2022-09-27T08:18:09.495Z,5.50
2022-09-27T08:20:36.050Z,3.60
2022-09-27T08:23:04.180Z,3.07
2022-09-27T08:25:31.373Z,8.00
2022-09-27T08:27:59.550Z,6.80
2022-09-27T08:30:26.875Z,2.70
2022-09-27T08:33:02.389Z,4.73
2022-09-27T08:35:29.807Z,3.40
2022-09-27T08:37:58.932Z,3.70
2022-09-27T08:40:42.412Z,3.23
2022-09-27T08:43:39.875Z,4.10
2022-09-27T08:46:25.032Z,4.80
2022-09-27T08:48:56.919Z,2.60
2022-09-27T08:51:29.199Z,2.70
2022-09-27T08:54:08.243Z,4.50
2022-09-27T08:56:35.842Z,3.67
2022-09-27T08:59:13.154Z,3.47
2022-09-27T09:01:39.753Z,4.60
2022-09-27T09:04:06.414Z,5.80
2022-09-27T09:06:42.909Z,4.50
2022-09-27T09:09:34.840Z,7.07
2022-09-27T09:12:46.114Z,5.33
2022-09-27T09:15:55.357Z,3.60
2022-09-27T09:18:58.827Z,4.03
2022-09-27T09:21:43.554Z,3.10
2022-09-27T09:24:21.483Z,3.07
2022-09-27T09:27:00.057Z,3.97
2022-09-27T09:29:51.495Z,4.30
2022-09-27T09:32:55.513Z,3.23
2022-09-27T09:35:28.065Z,2.47
2022-09-27T09:37:58.941Z,2.53
2022-09-27T09:40:51.339Z,2.80
2022-09-27T09:43:32.794Z,3.33
2022-09-27T09:46:17.510Z,2.60
2022-09-27T09:48:49.777Z,2.57
2022-09-27T09:51:24.462Z,2.53
2022-09-27T09:54:20.340Z,2.90
2022-09-27T09:56:53.279Z,2.93
2022-09-27T09:59:26.811Z,2.53
2022-09-27T10:01:58.322Z,5.47
2022-09-27T10:04:28.081Z,4.00
2022-09-27T10:06:57.481Z,6.40
2022-09-27T10:09:26.647Z,4.60
2022-09-27T10:11:53.337Z,3.50
2022-09-27T10:14:21.934Z,2.70
2022-09-27T10:16:54.545Z,3.77
2022-09-27T10:19:29.497Z,3.07
2022-09-27T10:22:02.563Z,3.87
2022-09-27T10:24:29.229Z,4.33
2022-09-27T10:27:01.040Z,2.83
2022-09-27T10:29:38.048Z,5.00
2022-09-27T10:32:19.070Z,2.20
2022-09-27T10:34:45.481Z,4.53
2022-09-27T10:37:11.839Z,3.70
2022-09-27T10:39:40.994Z,3.47
2022-09-27T10:42:35.343Z,7.57
2022-09-27T10:45:34.653Z,7.37
2022-09-27T10:48:02.494Z,4.27
2022-09-27T10:50:50.938Z,6.00
2022-09-27T10:53:21.701Z,4.23
2022-09-27T10:55:50.770Z,3.13
2022-09-27T10:58:36.571Z,3.80
2022-09-27T11:01:07.800Z,4.63
2022-09-27T11:03:39.255Z,6.13
2022-09-27T11:06:29.483Z,7.80
2022-09-27T11:09:09.811Z,3.30
2022-09-27T11:11:36.621Z,5.00
2022-09-27T11:14:32.055Z,4.47
2022-09-27T11:17:22.914Z,3.40
2022-09-27T11:20:26.697Z,5.60
2022-09-27T11:23:02.066Z,4.43
2022-09-27T11:25:32.109Z,5.40
2022-09-27T11:28:10.867Z,6.80
2022-09-27T11:30:58.624Z,7.40
2022-09-27T11:33:46.346Z,9.20
2022-09-27T11:36:53.688Z,6.40
2022-09-27T11:39:48.817Z,5.43
2022-09-27T11:42:42.756Z,5.33
2022-09-27T11:46:03.333Z,12.13
2022-09-27T11:48:37.466Z,6.07
2022-09-27T11:51:18.706Z,6.10
2022-09-27T11:54:13.232Z,6.77
2022-09-27T11:56:59.927Z,7.53
2022-09-27T12:00:05.739Z,10.17
2022-09-27T12:03:03.526Z,7.80
2022-09-27T12:05:58.710Z,11.20
2022-09-27T12:08:44.537Z,6.90
2022-09-27T12:11:19.759Z,6.93
2022-09-27T12:13:51.046Z,6.30
2022-09-27T12:16:20.043Z,6.77
2022-09-27T12:18:51.468Z,7.40
2022-09-27T12:21:19.394Z,6.07
2022-09-27T12:23:59.189Z,5.73
2022-09-27T12:26:30.707Z,4.77
2022-09-27T12:29:02.429Z,5.07
2022-09-27T12:31:38.547Z,5.30
2022-09-27T12:34:20.637Z,5.37
2022-09-27T12:37:02.083Z,5.50
2022-09-27T12:39:40.887Z,4.83
2022-09-27T12:42:17.881Z,4.43
2022-09-27T12:44:47.527Z,5.60
2022-09-27T12:47:46.005Z,4.20
2022-09-27T12:50:30.925Z,4.10
2022-09-27T12:53:14.730Z,4.13
2022-09-27T12:56:00.456Z,6.30
2022-09-27T12:58:43.023Z,4.53
2022-09-27T13:01:20.671Z,4.60
2022-09-27T13:04:15.066Z,3.83
2022-09-27T13:06:56.917Z,5.30
2022-09-27T13:09:25.991Z,5.30
2022-09-27T13:12:29.362Z,2.50
2022-09-27T13:15:17.374Z,4.13
2022-09-27T13:17:44.729Z,6.10
2022-09-27T13:20:32.920Z,2.80
2022-09-27T13:23:01.633Z,2.80
2022-09-27T13:26:03.844Z,5.63
2022-09-27T13:28:32.972Z,3.20
2022-09-27T13:31:02.224Z,3.20
2022-09-27T13:33:28.683Z,4.00
2022-09-27T13:36:16.550Z,5.00
2022-09-27T13:39:17.288Z,3.40
2022-09-27T13:41:47.734Z,5.03
2022-09-27T13:44:34.942Z,4.80
2022-09-27T13:47:33.132Z,3.60
2022-09-27T13:50:29.069Z,5.13
2022-09-27T13:53:24.578Z,2.67
2022-09-27T13:55:52.083Z,3.70
2022-09-27T13:58:52.666Z,3.50
2022-09-27T14:01:28.432Z,4.63
2022-09-27T14:04:01.165Z,5.10
2022-09-27T14:06:35.247Z,3.97
2022-09-27T14:09:07.988Z,3.13
2022-09-27T14:11:39.106Z,4.67
2022-09-27T14:14:07.961Z,2.73
2022-09-27T14:16:40.494Z,5.30
2022-09-27T14:19:16.336Z,2.37
2022-09-27T14:21:43.421Z,1.90
2022-09-27T14:24:31.455Z,2.30
2022-09-27T14:27:19.131Z,5.77
2022-09-27T14:29:56.540Z,2.70
2022-09-27T14:32:28.451Z,3.10
2022-09-27T14:35:07.303Z,3.03
2022-09-27T14:37:35.555Z,2.53
2022-09-27T14:40:06.758Z,4.27
2022-09-27T14:42:39.014Z,3.30
2022-09-27T14:45:27.719Z,2.03
2022-09-27T14:47:54.356Z,4.27
2022-09-27T14:50:27.735Z,3.90
2022-09-27T14:52:57.354Z,3.00
2022-09-27T14:55:27.618Z,3.20
2022-09-27T14:57:58.068Z,1.90
2022-09-27T15:00:32.088Z,3.33
2022-09-27T15:03:05.535Z,2.93
2022-09-27T15:05:34.140Z,4.13
2022-09-27T15:08:04.511Z,8.07
2022-09-27T15:10:34.183Z,4.67
2022-09-27T15:13:03.441Z,2.47
2022-09-27T15:15:33.711Z,6.23
2022-09-27T15:18:01.004Z,4.83
2022-09-27T15:20:35.744Z,5.13
2022-09-27T15:23:04.178Z,3.90
2022-09-27T15:25:43.777Z,3.70
2022-09-27T15:28:19.315Z,3.73
2022-09-27T15:30:58.087Z,3.47
2022-09-27T15:33:32.464Z,4.27
2022-09-27T15:36:04.168Z,6.43
2022-09-27T15:38:47.358Z,3.10
2022-09-27T15:41:18.957Z,5.40
2022-09-27T15:43:49.618Z,3.27
2022-09-27T15:46:22.198Z,5.37
2022-09-27T15:49:16.731Z,7.00
2022-09-27T15:51:45.461Z,8.00
2022-09-27T15:54:11.886Z,5.23
2022-09-27T15:56:41.104Z,7.17
2022-09-27T15:59:17.794Z,6.40
2022-09-27T16:01:44.132Z,5.60
2022-09-27T16:04:10.538Z,5.50
2022-09-27T16:06:38.126Z,5.00
2022-09-27T16:09:04.564Z,5.90
2022-09-27T16:11:30.910Z,5.00
2022-09-27T16:13:57.320Z,7.03
2022-09-27T16:16:23.809Z,5.60
2022-09-27T16:18:50.228Z,6.97
2022-09-27T16:21:16.588Z,8.80
2022-09-27T16:23:42.937Z,6.17
2022-09-27T16:26:09.303Z,7.07
2022-09-27T16:28:35.698Z,5.67
2022-09-27T16:31:04.373Z,9.13
2022-09-27T16:33:32.632Z,5.90
2022-09-27T16:36:04.822Z,5.47
2022-09-27T16:38:31.171Z,6.20
2022-09-27T16:41:03.975Z,3.27
2022-09-27T16:43:31.738Z,3.77
2022-09-27T16:46:11.590Z,4.43
2022-09-27T16:48:38.691Z,2.30
2022-09-27T16:51:25.450Z,2.90
2022-09-27T16:53:51.831Z,3.90
2022-09-27T16:56:19.173Z,3.87
2022-09-27T16:58:45.562Z,4.23
2022-09-27T17:01:12.013Z,3.20
2022-09-27T17:03:38.407Z,2.73
2022-09-27T17:06:04.908Z,3.77
2022-09-27T17:08:31.383Z,2.80
2022-09-27T17:10:57.740Z,3.40
2022-09-27T17:13:24.118Z,3.73
2022-09-27T17:15:50.517Z,5.03
2022-09-27T17:18:17.393Z,5.03
2022-09-27T17:20:44.222Z,5.97
2022-09-27T17:23:10.558Z,6.07
2022-09-27T17:25:36.917Z,4.40
2022-09-27T17:28:03.230Z,4.27
2022-09-27T17:30:29.669Z,4.70
2022-09-27T17:32:56.022Z,8.80
2022-09-27T17:35:22.392Z,5.80
2022-09-27T17:37:50.574Z,8.23
2022-09-27T17:40:17.642Z,5.27
2022-09-27T17:42:44.125Z,5.43
2022-09-27T17:45:10.640Z,4.50
2022-09-27T17:47:55.417Z,8.70
2022-09-27T17:50:24.366Z,6.93
2022-09-27T17:52:54.942Z,6.43
2022-09-27T17:55:22.395Z,5.70
2022-09-27T17:57:49.855Z,5.90
2022-09-27T18:00:17.051Z,4.30
2022-09-27T18:02:44.887Z,6.50
2022-09-27T18:05:11.431Z,6.70
2022-09-27T18:07:37.817Z,8.43
2022-09-27T18:10:05.113Z,6.20
2022-09-27T18:12:34.877Z,6.80
2022-09-27T18:15:02.259Z,9.13
2022-09-27T18:17:28.712Z,7.70
2022-09-27T18:19:56.903Z,7.90
2022-09-27T18:22:26.301Z,8.30
2022-09-27T18:24:52.651Z,9.07
2022-09-27T18:27:20.028Z,6.70
2022-09-27T18:29:46.462Z,7.67
2022-09-27T18:32:12.786Z,9.80
2022-09-27T18:34:40.213Z,10.77
2022-09-27T18:37:06.522Z,10.73
2022-09-27T18:39:32.883Z,9.83
2022-09-27T18:41:59.303Z,10.47
2022-09-27T18:44:25.715Z,9.07
2022-09-27T18:46:52.176Z,10.43
2022-09-27T18:49:21.150Z,8.40
2022-09-27T18:51:51.891Z,7.93
2022-09-27T18:54:21.100Z,9.30
2022-09-27T18:56:49.585Z,11.87
2022-09-27T18:59:17.143Z,8.13
2022-09-27T19:01:47.374Z,8.90
2022-09-27T19:04:20.346Z,10.33
2022-09-27T19:06:48.071Z,9.93
2022-09-27T19:09:14.451Z,10.60
2022-09-27T19:11:40.885Z,8.40
2022-09-27T19:14:07.440Z,9.17
2022-09-27T19:16:34.068Z,8.93
2022-09-27T19:19:00.472Z,6.83
2022-09-27T19:21:29.112Z,10.70
2022-09-27T19:23:56.303Z,6.60
2022-09-27T19:26:25.956Z,14.10
2022-09-27T19:28:53.355Z,7.10
2022-09-27T19:31:22.391Z,5.97
2022-09-27T19:33:49.530Z,6.97
2022-09-27T19:36:17.892Z,6.73
2022-09-27T19:38:44.915Z,6.70
2022-09-27T19:41:13.788Z,6.70
2022-09-27T19:43:40.641Z,6.50
2022-09-27T19:46:15.438Z,7.50
2022-09-27T19:48:43.067Z,5.87
2022-09-27T19:51:14.298Z,10.50
2022-09-27T19:53:40.834Z,8.13
2022-09-27T19:56:09.234Z,8.00
2022-09-27T19:58:37.489Z,6.50
2022-09-27T20:01:06.660Z,8.47
2022-09-27T20:03:35.406Z,6.70
2022-09-27T20:06:03.221Z,11.53
2022-09-27T20:08:30.565Z,6.43
2022-09-27T20:11:03.773Z,6.40
2022-09-27T20:13:33.582Z,6.17
2022-09-27T20:16:07.248Z,7.83
2022-09-27T20:18:34.282Z,7.73
2022-09-27T20:21:02.455Z,6.17
2022-09-27T20:23:33.641Z,7.93
2022-09-27T20:26:10.904Z,5.33
2022-09-27T20:28:41.994Z,7.87
2022-09-27T20:31:09.910Z,8.60
2022-09-27T20:33:42.397Z,7.33
2022-09-27T20:36:14.196Z,7.03
2022-09-27T20:38:42.407Z,5.27
2022-09-27T20:41:10.300Z,6.27
2022-09-27T20:43:37.542Z,5.30
2022-09-27T20:46:07.174Z,7.20
2022-09-27T20:48:34.283Z,6.03
2022-09-27T20:51:04.647Z,7.10
2022-09-27T20:53:31.945Z,5.37
2022-09-27T20:55:59.853Z,5.50
2022-09-27T20:58:26.653Z,6.60
2022-09-27T21:00:53.099Z,5.87
2022-09-27T21:03:21.894Z,5.00
2022-09-27T21:05:58.408Z,6.70
2022-09-27T21:08:25.066Z,5.20
2022-09-27T21:10:52.985Z,4.73
2022-09-27T21:13:19.682Z,5.90
2022-09-27T21:15:46.103Z,7.53
2022-09-27T21:18:12.653Z,5.83
2022-09-27T21:20:39.066Z,7.80
2022-09-27T21:23:05.860Z,6.30
2022-09-27T21:25:32.253Z,5.83
2022-09-27T21:27:58.584Z,8.73
2022-09-27T21:30:25.201Z,8.27
2022-09-27T21:32:55.184Z,7.47
2022-09-27T21:35:22.370Z,13.07
2022-09-27T21:37:49.096Z,5.63
2022-09-27T21:40:16.617Z,6.10
2022-09-27T21:42:43.058Z,5.97
2022-09-27T21:45:10.223Z,9.13
2022-09-27T21:47:36.595Z,9.00
2022-09-27T21:50:03.084Z,6.40
2022-09-27T21:52:29.423Z,9.33
2022-09-27T21:54:55.726Z,8.30
2022-09-27T21:57:22.112Z,7.00
2022-09-27T21:59:48.405Z,8.53
2022-09-27T22:02:14.774Z,11.10
2022-09-27T22:04:41.462Z,9.03
2022-09-27T22:07:07.793Z,8.63
2022-09-27T22:09:34.118Z,6.00
2022-09-27T22:12:00.643Z,7.97
2022-09-27T22:14:26.949Z,4.67
2022-09-27T22:16:53.259Z,4.93
2022-09-27T22:19:20.757Z,4.90
2022-09-27T22:21:49.582Z,4.50
2022-09-27T22:24:17.917Z,5.00
2022-09-27T22:26:49.662Z,4.83
2022-09-27T22:29:16.605Z,5.03
2022-09-27T22:31:43.203Z,4.60
2022-09-27T22:34:18.752Z,4.30
2022-09-27T22:36:45.398Z,3.60
2022-09-27T22:39:12.334Z,3.87
2022-09-27T22:41:38.793Z,3.97
2022-09-27T22:44:05.193Z,6.00
2022-09-27T22:46:31.539Z,7.27
2022-09-27T22:48:58.018Z,5.30
2022-09-27T22:51:24.345Z,4.60
2022-09-27T22:53:50.684Z,3.60
2022-09-27T22:56:19.658Z,3.67
2022-09-27T22:58:47.954Z,8.00
2022-09-27T23:01:22.634Z,3.13
2022-09-27T23:03:51.515Z,3.00
2022-09-27T23:06:19.547Z,6.97
2022-09-27T23:08:47.311Z,2.80
2022-09-27T23:11:19.858Z,7.30
2022-09-27T23:13:48.045Z,3.30
2022-09-27T23:16:17.340Z,5.30
2022-09-27T23:18:44.674Z,3.30
2022-09-27T23:21:12.691Z,4.50
2022-09-27T23:23:42.068Z,4.63
2022-09-27T23:26:11.323Z,6.53
2022-09-27T23:28:38.212Z,6.60
2022-09-27T23:31:08.135Z,4.40
2022-09-27T23:33:36.433Z,6.60
2022-09-27T23:36:03.041Z,5.70
2022-09-27T23:38:31.240Z,5.30
2022-09-27T23:40:57.983Z,4.47
2022-09-27T23:43:24.678Z,5.60
2022-09-27T23:45:52.945Z,6.80
2022-09-27T23:48:19.734Z,5.70
2022-09-27T23:50:46.335Z,6.43
2022-09-27T23:53:12.700Z,5.80
2022-09-27T23:55:39.011Z,5.47
2022-09-27T23:58:05.337Z,4.53
